sensor_id;sensor_type;location;lat;lon;timestamp;P1;durP1;ratioP1;P2;durP2;ratioP2
16063;SDS011;8136;53.172;8.256;2023-09-18T00:00:24;6.77;;;5.40;;
16063;SDS011;8136;53.172;8.256;2023-09-18T00:02:51;7.00;;;5.33;;
16063;SDS011;8136;53.172;8.256;2023-09-18T00:05:17;5.67;;;4.93;;
16063;SDS011;8136;53.172;8.256;2023-09-18T00:07:44;5.70;;;5.10;;
16063;SDS011;8136;53.172;8.256;2023-09-18T00:10:11;5.60;;;5.10;;
16063;SDS011;8136;53.172;8.256;2023-09-18T00:12:40;6.40;;;5.33;;
16063;SDS011;8136;53.172;8.256;2023-09-18T00:15:07;5.60;;;5.00;;
16063;SDS011;8136;53.172;8.256;2023-09-18T00:17:34;6.03;;;5.43;;
16063;SDS011;8136;53.172;8.256;2023-09-18T00:20:02;6.13;;;5.20;;
16063;SDS011;8136;53.172;8.256;2023-09-18T00:22:31;5.47;;;4.80;;
16063;SDS011;8136;53.172;8.256;2023-09-18T00:24:58;4.80;;;4.33;;
16063;SDS011;8136;53.172;8.256;2023-09-18T00:27:26;5.73;;;4.97;;
16063;SDS011;8136;53.172;8.256;2023-09-18T00:29:54;5.00;;;4.60;;
16063;SDS011;8136;53.172;8.256;2023-09-18T00:32:21;7.83;;;5.57;;
16063;SDS011;8136;53.172;8.256;2023-09-18T00:34:48;7.03;;;4.90;;
16063;SDS011;8136;53.172;8.256;2023-09-18T00:37:15;6.87;;;4.83;;
16063;SDS011;8136;53.172;8.256;2023-09-18T00:39:42;5.33;;;4.83;;
16063;SDS011;8136;53.172;8.256;2023-09-18T00:42:09;7.10;;;5.27;;
16063;SDS011;8136;53.172;8.256;2023-09-18T00:44:38;5.80;;;5.20;;
16063;SDS011;8136;53.172;8.256;2023-09-18T00:47:07;8.47;;;6.93;;
16063;SDS011;8136;53.172;8.256;2023-09-18T00:49:34;8.87;;;7.17;;
16063;SDS011;8136;53.172;8.256;2023-09-18T00:52:02;9.27;;;8.37;;
16063;SDS011;8136;53.172;8.256;2023-09-18T00:54:30;9.60;;;8.40;;
16063;SDS011;8136;53.172;8.256;2023-09-18T00:56:59;10.97;;;8.07;;
16063;SDS011;8136;53.172;8.256;2023-09-18T00:59:26;9.10;;;7.50;;
16063;SDS011;8136;53.172;8.256;2023-09-18T01:01:53;9.23;;;8.10;;
16063;SDS011;8136;53.172;8.256;2023-09-18T01:04:21;9.37;;;8.37;;
16063;SDS011;8136;53.172;8.256;2023-09-18T01:06:50;10.63;;;9.30;;
16063;SDS011;8136;53.172;8.256;2023-09-18T01:09:17;9.20;;;7.93;;
16063;SDS011;8136;53.172;8.256;2023-09-18T01:11:48;11.37;;;8.30;;
16063;SDS011;8136;53.172;8.256;2023-09-18T01:14:22;10.37;;;9.23;;
16063;SDS011;8136;53.172;8.256;2023-09-18T01:16:56;12.03;;;9.93;;
16063;SDS011;8136;53.172;8.256;2023-09-18T01:19:37;11.77;;;10.40;;
16063;SDS011;8136;53.172;8.256;2023-09-18T01:22:05;13.13;;;11.37;;
16063;SDS011;8136;53.172;8.256;2023-09-18T01:24:35;11.60;;;10.43;;
16063;SDS011;8136;53.172;8.256;2023-09-18T01:27:03;12.30;;;10.60;;
16063;SDS011;8136;53.172;8.256;2023-09-18T01:29:31;13.37;;;11.60;;
16063;SDS011;8136;53.172;8.256;2023-09-18T01:31:58;11.90;;;10.50;;
16063;SDS011;8136;53.172;8.256;2023-09-18T01:34:25;12.83;;;11.43;;
16063;SDS011;8136;53.172;8.256;2023-09-18T01:37:13;12.17;;;10.03;;
16063;SDS011;8136;53.172;8.256;2023-09-18T01:39:44;14.77;;;11.33;;
16063;SDS011;8136;53.172;8.256;2023-09-18T01:42:11;12.33;;;11.03;;
16063;SDS011;8136;53.172;8.256;2023-09-18T01:44:38;12.17;;;10.27;;
16063;SDS011;8136;53.172;8.256;2023-09-18T01:47:06;14.63;;;11.13;;
16063;SDS011;8136;53.172;8.256;2023-09-18T01:49:35;12.30;;;10.30;;
16063;SDS011;8136;53.172;8.256;2023-09-18T01:52:04;11.73;;;10.53;;
16063;SDS011;8136;53.172;8.256;2023-09-18T01:54:33;11.50;;;10.30;;
16063;SDS011;8136;53.172;8.256;2023-09-18T01:57:02;15.53;;;11.33;;
16063;SDS011;8136;53.172;8.256;2023-09-18T01:59:33;11.10;;;9.97;;
16063;SDS011;8136;53.172;8.256;2023-09-18T02:02:01;10.90;;;9.67;;
16063;SDS011;8136;53.172;8.256;2023-09-18T02:04:28;11.77;;;10.37;;
16063;SDS011;8136;53.172;8.256;2023-09-18T02:06:56;12.80;;;10.27;;
16063;SDS011;8136;53.172;8.256;2023-09-18T02:09:23;12.73;;;10.17;;
16063;SDS011;8136;53.172;8.256;2023-09-18T02:11:50;11.63;;;9.30;;
16063;SDS011;8136;53.172;8.256;2023-09-18T02:14:18;11.37;;;8.23;;
16063;SDS011;8136;53.172;8.256;2023-09-18T02:16:44;10.47;;;9.27;;
16063;SDS011;8136;53.172;8.256;2023-09-18T02:19:11;12.57;;;9.40;;
16063;SDS011;8136;53.172;8.256;2023-09-18T02:21:39;9.67;;;8.67;;
16063;SDS011;8136;53.172;8.256;2023-09-18T02:24:06;10.43;;;9.43;;
16063;SDS011;8136;53.172;8.256;2023-09-18T02:26:34;10.60;;;9.30;;
16063;SDS011;8136;53.172;8.256;2023-09-18T02:29:02;10.20;;;9.03;;
16063;SDS011;8136;53.172;8.256;2023-09-18T02:31:34;11.73;;;9.77;;
16063;SDS011;8136;53.172;8.256;2023-09-18T02:34:00;12.30;;;9.40;;
16063;SDS011;8136;53.172;8.256;2023-09-18T02:36:27;9.17;;;8.27;;
16063;SDS011;8136;53.172;8.256;2023-09-18T02:38:54;10.20;;;9.00;;
16063;SDS011;8136;53.172;8.256;2023-09-18T02:41:21;10.10;;;9.10;;
16063;SDS011;8136;53.172;8.256;2023-09-18T02:43:48;10.40;;;8.63;;
16063;SDS011;8136;53.172;8.256;2023-09-18T02:46:14;11.40;;;8.53;;
16063;SDS011;8136;53.172;8.256;2023-09-18T02:48:42;9.00;;;8.10;;
16063;SDS011;8136;53.172;8.256;2023-09-18T02:51:09;10.20;;;8.17;;
16063;SDS011;8136;53.172;8.256;2023-09-18T02:53:36;10.77;;;8.47;;
16063;SDS011;8136;53.172;8.256;2023-09-18T02:56:03;11.13;;;9.20;;
16063;SDS011;8136;53.172;8.256;2023-09-18T02:58:30;9.10;;;8.00;;
16063;SDS011;8136;53.172;8.256;2023-09-18T03:00:57;9.67;;;8.33;;
16063;SDS011;8136;53.172;8.256;2023-09-18T03:03:24;8.73;;;7.83;;
16063;SDS011;8136;53.172;8.256;2023-09-18T03:05:54;13.57;;;8.27;;
16063;SDS011;8136;53.172;8.256;2023-09-18T03:08:27;9.43;;;7.33;;
16063;SDS011;8136;53.172;8.256;2023-09-18T03:10:53;8.20;;;7.40;;
16063;SDS011;8136;53.172;8.256;2023-09-18T03:13:21;9.80;;;8.53;;
16063;SDS011;8136;53.172;8.256;2023-09-18T03:15:48;12.73;;;8.13;;
16063;SDS011;8136;53.172;8.256;2023-09-18T03:18:15;9.50;;;7.87;;
16063;SDS011;8136;53.172;8.256;2023-09-18T03:20:42;11.47;;;8.80;;
16063;SDS011;8136;53.172;8.256;2023-09-18T03:23:10;9.37;;;8.30;;
16063;SDS011;8136;53.172;8.256;2023-09-18T03:25:37;8.97;;;8.07;;
16063;SDS011;8136;53.172;8.256;2023-09-18T03:28:04;11.13;;;8.30;;
16063;SDS011;8136;53.172;8.256;2023-09-18T03:30:31;11.10;;;7.73;;
16063;SDS011;8136;53.172;8.256;2023-09-18T03:32:58;10.80;;;8.27;;
16063;SDS011;8136;53.172;8.256;2023-09-18T03:35:24;10.77;;;8.10;;
16063;SDS011;8136;53.172;8.256;2023-09-18T03:37:52;11.23;;;8.03;;
16063;SDS011;8136;53.172;8.256;2023-09-18T03:40:21;9.37;;;7.67;;
16063;SDS011;8136;53.172;8.256;2023-09-18T03:42:48;9.17;;;8.17;;
16063;SDS011;8136;53.172;8.256;2023-09-18T03:45:15;10.17;;;8.07;;
16063;SDS011;8136;53.172;8.256;2023-09-18T03:47:44;9.37;;;6.97;;
16063;SDS011;8136;53.172;8.256;2023-09-18T03:50:11;9.47;;;7.50;;
16063;SDS011;8136;53.172;8.256;2023-09-18T03:52:39;11.33;;;7.73;;
16063;SDS011;8136;53.172;8.256;2023-09-18T03:55:06;11.20;;;7.77;;
16063;SDS011;8136;53.172;8.256;2023-09-18T03:57:35;10.07;;;7.87;;
16063;SDS011;8136;53.172;8.256;2023-09-18T04:00:02;9.57;;;7.03;;
16063;SDS011;8136;53.172;8.256;2023-09-18T04:02:32;8.77;;;7.87;;
16063;SDS011;8136;53.172;8.256;2023-09-18T04:04:59;9.40;;;7.60;;
16063;SDS011;8136;53.172;8.256;2023-09-18T04:07:26;8.60;;;7.23;;
16063;SDS011;8136;53.172;8.256;2023-09-18T04:09:53;8.97;;;7.23;;
16063;SDS011;8136;53.172;8.256;2023-09-18T04:12:20;7.80;;;6.43;;
16063;SDS011;8136;53.172;8.256;2023-09-18T04:14:48;9.50;;;6.17;;
16063;SDS011;8136;53.172;8.256;2023-09-18T04:17:16;11.63;;;7.53;;
16063;SDS011;8136;53.172;8.256;2023-09-18T04:19:43;9.57;;;7.37;;
16063;SDS011;8136;53.172;8.256;2023-09-18T04:22:10;8.93;;;7.00;;
16063;SDS011;8136;53.172;8.256;2023-09-18T04:24:36;9.07;;;7.13;;
16063;SDS011;8136;53.172;8.256;2023-09-18T04:27:03;11.13;;;7.17;;
16063;SDS011;8136;53.172;8.256;2023-09-18T04:29:30;9.43;;;7.20;;
16063;SDS011;8136;53.172;8.256;2023-09-18T04:31:58;10.60;;;7.20;;
16063;SDS011;8136;53.172;8.256;2023-09-18T04:34:25;9.10;;;6.93;;
16063;SDS011;8136;53.172;8.256;2023-09-18T04:36:51;10.43;;;6.83;;
16063;SDS011;8136;53.172;8.256;2023-09-18T04:39:18;8.13;;;6.83;;
16063;SDS011;8136;53.172;8.256;2023-09-18T04:41:46;9.30;;;7.07;;
16063;SDS011;8136;53.172;8.256;2023-09-18T04:44:12;9.13;;;6.63;;
16063;SDS011;8136;53.172;8.256;2023-09-18T04:46:39;10.93;;;7.80;;
16063;SDS011;8136;53.172;8.256;2023-09-18T04:49:08;8.07;;;7.00;;
16063;SDS011;8136;53.172;8.256;2023-09-18T04:51:36;9.23;;;6.97;;
16063;SDS011;8136;53.172;8.256;2023-09-18T04:54:04;7.90;;;6.47;;
16063;SDS011;8136;53.172;8.256;2023-09-18T04:56:31;8.77;;;6.73;;
16063;SDS011;8136;53.172;8.256;2023-09-18T04:58:59;8.47;;;6.90;;
16063;SDS011;8136;53.172;8.256;2023-09-18T05:01:25;9.37;;;7.20;;
16063;SDS011;8136;53.172;8.256;2023-09-18T05:03:52;8.07;;;6.53;;
16063;SDS011;8136;53.172;8.256;2023-09-18T05:06:21;7.70;;;6.47;;
16063;SDS011;8136;53.172;8.256;2023-09-18T05:08:48;11.17;;;7.53;;
16063;SDS011;8136;53.172;8.256;2023-09-18T05:11:14;7.13;;;6.40;;
16063;SDS011;8136;53.172;8.256;2023-09-18T06:41:08;7.30;;;5.27;;
16063;SDS011;8136;53.172;8.256;2023-09-18T06:43:35;7.83;;;5.57;;
16063;SDS011;8136;53.172;8.256;2023-09-18T06:46:02;7.03;;;5.00;;
16063;SDS011;8136;53.172;8.256;2023-09-18T06:48:28;6.20;;;5.07;;
16063;SDS011;8136;53.172;8.256;2023-09-18T06:50:57;5.97;;;5.07;;
16063;SDS011;8136;53.172;8.256;2023-09-18T06:53:25;5.90;;;4.73;;
16063;SDS011;8136;53.172;8.256;2023-09-18T06:55:52;5.87;;;5.27;;
16063;SDS011;8136;53.172;8.256;2023-09-18T06:58:20;5.40;;;4.50;;
16063;SDS011;8136;53.172;8.256;2023-09-18T07:00:47;6.43;;;4.47;;
16063;SDS011;8136;53.172;8.256;2023-09-18T07:03:15;6.27;;;4.57;;
16063;SDS011;8136;53.172;8.256;2023-09-18T07:05:42;9.03;;;4.60;;
16063;SDS011;8136;53.172;8.256;2023-09-18T07:08:11;5.80;;;4.67;;
16063;SDS011;8136;53.172;8.256;2023-09-18T07:10:38;6.00;;;4.67;;
16063;SDS011;8136;53.172;8.256;2023-09-18T07:13:05;4.77;;;4.27;;
16063;SDS011;8136;53.172;8.256;2023-09-18T07:15:33;7.07;;;4.93;;
16063;SDS011;8136;53.172;8.256;2023-09-18T07:18:00;7.80;;;4.70;;
16063;SDS011;8136;53.172;8.256;2023-09-18T07:20:27;5.20;;;4.67;;
16063;SDS011;8136;53.172;8.256;2023-09-18T07:22:55;6.63;;;5.07;;
16063;SDS011;8136;53.172;8.256;2023-09-18T07:25:22;9.33;;;4.77;;
16063;SDS011;8136;53.172;8.256;2023-09-18T07:27:49;6.63;;;4.67;;
16063;SDS011;8136;53.172;8.256;2023-09-18T07:30:16;7.20;;;4.80;;
16063;SDS011;8136;53.172;8.256;2023-09-18T07:32:45;6.33;;;4.50;;
16063;SDS011;8136;53.172;8.256;2023-09-18T07:35:12;8.40;;;4.83;;
16063;SDS011;8136;53.172;8.256;2023-09-18T07:37:40;7.80;;;4.47;;
16063;SDS011;8136;53.172;8.256;2023-09-18T07:40:09;9.13;;;4.80;;
16063;SDS011;8136;53.172;8.256;2023-09-18T07:42:36;8.77;;;5.20;;
16063;SDS011;8136;53.172;8.256;2023-09-18T07:45:03;6.03;;;4.87;;
16063;SDS011;8136;53.172;8.256;2023-09-18T07:47:31;7.00;;;5.00;;
16063;SDS011;8136;53.172;8.256;2023-09-18T07:49:59;5.73;;;4.57;;
16063;SDS011;8136;53.172;8.256;2023-09-18T07:52:26;5.23;;;4.40;;
16063;SDS011;8136;53.172;8.256;2023-09-18T07:54:52;5.73;;;4.93;;
16063;SDS011;8136;53.172;8.256;2023-09-18T07:57:19;6.07;;;4.57;;
16063;SDS011;8136;53.172;8.256;2023-09-18T07:59:48;5.63;;;4.53;;
16063;SDS011;8136;53.172;8.256;2023-09-18T08:02:14;5.43;;;4.30;;
16063;SDS011;8136;53.172;8.256;2023-09-18T08:04:42;7.33;;;4.27;;
16063;SDS011;8136;53.172;8.256;2023-09-18T08:07:10;7.70;;;4.17;;
16063;SDS011;8136;53.172;8.256;2023-09-18T08:09:37;4.53;;;4.07;;
16063;SDS011;8136;53.172;8.256;2023-09-18T08:12:05;6.67;;;4.33;;
16063;SDS011;8136;53.172;8.256;2023-09-18T08:14:33;4.60;;;3.77;;
16063;SDS011;8136;53.172;8.256;2023-09-18T08:17:01;8.73;;;4.63;;
16063;SDS011;8136;53.172;8.256;2023-09-18T08:19:29;7.73;;;4.80;;
16063;SDS011;8136;53.172;8.256;2023-09-18T08:21:56;6.67;;;4.17;;
16063;SDS011;8136;53.172;8.256;2023-09-18T08:24:25;6.63;;;4.37;;
16063;SDS011;8136;53.172;8.256;2023-09-18T08:26:52;9.47;;;4.70;;
16063;SDS011;8136;53.172;8.256;2023-09-18T08:29:21;8.90;;;4.40;;
16063;SDS011;8136;53.172;8.256;2023-09-18T08:31:48;6.93;;;4.33;;
16063;SDS011;8136;53.172;8.256;2023-09-18T08:34:15;7.43;;;4.30;;
16063;SDS011;8136;53.172;8.256;2023-09-18T08:36:42;9.00;;;5.00;;
16063;SDS011;8136;53.172;8.256;2023-09-18T08:39:09;5.00;;;4.27;;
16063;SDS011;8136;53.172;8.256;2023-09-18T08:41:38;9.10;;;4.60;;
16063;SDS011;8136;53.172;8.256;2023-09-18T08:44:09;12.00;;;5.13;;
16063;SDS011;8136;53.172;8.256;2023-09-18T08:46:36;9.43;;;5.40;;
16063;SDS011;8136;53.172;8.256;2023-09-18T08:49:03;6.63;;;5.33;;
16063;SDS011;8136;53.172;8.256;2023-09-18T08:51:32;7.77;;;4.60;;
16063;SDS011;8136;53.172;8.256;2023-09-18T08:53:59;8.83;;;4.73;;
16063;SDS011;8136;53.172;8.256;2023-09-18T08:56:27;8.90;;;5.33;;
16063;SDS011;8136;53.172;8.256;2023-09-18T08:58:57;8.67;;;4.47;;
16063;SDS011;8136;53.172;8.256;2023-09-18T09:01:24;7.23;;;4.90;;
16063;SDS011;8136;53.172;8.256;2023-09-18T09:03:51;6.50;;;4.57;;
16063;SDS011;8136;53.172;8.256;2023-09-18T09:06:18;9.33;;;4.63;;
16063;SDS011;8136;53.172;8.256;2023-09-18T09:08:45;10.33;;;4.60;;
16063;SDS011;8136;53.172;8.256;2023-09-18T09:11:12;10.97;;;4.50;;
16063;SDS011;8136;53.172;8.256;2023-09-18T09:13:39;9.03;;;4.47;;
16063;SDS011;8136;53.172;8.256;2023-09-18T09:16:07;8.93;;;5.17;;
16063;SDS011;8136;53.172;8.256;2023-09-18T09:18:46;5.37;;;4.20;;
16063;SDS011;8136;53.172;8.256;2023-09-18T09:21:14;5.73;;;4.27;;
16063;SDS011;8136;53.172;8.256;2023-09-18T09:23:45;8.43;;;4.60;;
16063;SDS011;8136;53.172;8.256;2023-09-18T09:26:15;9.47;;;4.30;;
16063;SDS011;8136;53.172;8.256;2023-09-18T09:28:43;7.67;;;4.00;;
16063;SDS011;8136;53.172;8.256;2023-09-18T09:31:12;7.90;;;3.90;;
16063;SDS011;8136;53.172;8.256;2023-09-18T09:33:50;7.03;;;3.87;;
16063;SDS011;8136;53.172;8.256;2023-09-18T09:36:18;7.90;;;3.97;;
16063;SDS011;8136;53.172;8.256;2023-09-18T09:38:45;7.93;;;4.30;;
16063;SDS011;8136;53.172;8.256;2023-09-18T09:41:13;9.80;;;3.97;;
16063;SDS011;8136;53.172;8.256;2023-09-18T09:43:41;5.60;;;3.67;;
16063;SDS011;8136;53.172;8.256;2023-09-18T09:46:14;7.80;;;3.30;;
16063;SDS011;8136;53.172;8.256;2023-09-18T09:48:57;8.63;;;3.80;;
16063;SDS011;8136;53.172;8.256;2023-09-18T09:51:26;6.73;;;3.93;;
16063;SDS011;8136;53.172;8.256;2023-09-18T09:53:53;5.53;;;3.10;;
16063;SDS011;8136;53.172;8.256;2023-09-18T09:56:20;9.70;;;4.47;;
16063;SDS011;8136;53.172;8.256;2023-09-18T09:58:59;7.50;;;3.50;;
16063;SDS011;8136;53.172;8.256;2023-09-18T10:01:30;6.40;;;3.80;;
16063;SDS011;8136;53.172;8.256;2023-09-18T10:03:57;4.90;;;3.60;;
16063;SDS011;8136;53.172;8.256;2023-09-18T10:06:26;6.57;;;4.20;;
16063;SDS011;8136;53.172;8.256;2023-09-18T10:08:57;8.87;;;3.33;;
16063;SDS011;8136;53.172;8.256;2023-09-18T10:11:25;6.60;;;3.97;;
16063;SDS011;8136;53.172;8.256;2023-09-18T10:13:55;4.10;;;3.33;;
16063;SDS011;8136;53.172;8.256;2023-09-18T10:16:28;5.17;;;3.40;;
16063;SDS011;8136;53.172;8.256;2023-09-18T10:19:04;4.23;;;3.47;;
16063;SDS011;8136;53.172;8.256;2023-09-18T10:21:38;5.90;;;4.00;;
16063;SDS011;8136;53.172;8.256;2023-09-18T10:24:11;4.73;;;3.77;;
16063;SDS011;8136;53.172;8.256;2023-09-18T10:26:47;7.50;;;3.50;;
16063;SDS011;8136;53.172;8.256;2023-09-18T10:29:17;6.90;;;3.57;;
16063;SDS011;8136;53.172;8.256;2023-09-18T10:31:47;9.00;;;3.67;;
16063;SDS011;8136;53.172;8.256;2023-09-18T10:34:17;8.60;;;3.50;;
16063;SDS011;8136;53.172;8.256;2023-09-18T10:36:44;5.80;;;3.20;;
16063;SDS011;8136;53.172;8.256;2023-09-18T10:39:13;3.33;;;3.03;;
16063;SDS011;8136;53.172;8.256;2023-09-18T10:41:44;4.63;;;3.03;;
16063;SDS011;8136;53.172;8.256;2023-09-18T10:44:13;6.23;;;3.53;;
16063;SDS011;8136;53.172;8.256;2023-09-18T10:46:41;5.50;;;3.57;;
16063;SDS011;8136;53.172;8.256;2023-09-18T10:49:09;6.60;;;3.47;;
16063;SDS011;8136;53.172;8.256;2023-09-18T10:51:37;5.80;;;3.03;;
16063;SDS011;8136;53.172;8.256;2023-09-18T10:54:07;5.87;;;3.13;;
16063;SDS011;8136;53.172;8.256;2023-09-18T10:56:34;6.90;;;3.10;;
16063;SDS011;8136;53.172;8.256;2023-09-18T10:59:01;6.13;;;2.73;;
16063;SDS011;8136;53.172;8.256;2023-09-18T11:01:31;6.30;;;2.80;;
16063;SDS011;8136;53.172;8.256;2023-09-18T11:03:58;3.97;;;2.67;;
16063;SDS011;8136;53.172;8.256;2023-09-18T11:06:28;4.33;;;2.90;;
16063;SDS011;8136;53.172;8.256;2023-09-18T11:08:58;5.50;;;3.00;;
16063;SDS011;8136;53.172;8.256;2023-09-18T11:11:29;5.13;;;3.20;;
16063;SDS011;8136;53.172;8.256;2023-09-18T11:13:58;6.30;;;2.80;;
16063;SDS011;8136;53.172;8.256;2023-09-18T11:16:33;5.03;;;2.63;;
16063;SDS011;8136;53.172;8.256;2023-09-18T11:19:10;5.37;;;3.10;;
16063;SDS011;8136;53.172;8.256;2023-09-18T11:21:40;7.33;;;2.67;;
16063;SDS011;8136;53.172;8.256;2023-09-18T11:24:08;8.13;;;2.90;;
16063;SDS011;8136;53.172;8.256;2023-09-18T11:26:42;3.80;;;2.67;;
16063;SDS011;8136;53.172;8.256;2023-09-18T11:29:11;4.03;;;2.43;;
16063;SDS011;8136;53.172;8.256;2023-09-18T11:31:43;4.37;;;2.53;;
16063;SDS011;8136;53.172;8.256;2023-09-18T11:34:11;7.53;;;2.63;;
16063;SDS011;8136;53.172;8.256;2023-09-18T11:36:40;3.40;;;2.40;;
16063;SDS011;8136;53.172;8.256;2023-09-18T11:39:07;6.60;;;2.80;;
16063;SDS011;8136;53.172;8.256;2023-09-18T11:41:36;4.00;;;2.73;;
16063;SDS011;8136;53.172;8.256;2023-09-18T11:47:01;4.13;;;2.17;;
16063;SDS011;8136;53.172;8.256;2023-09-18T11:49:29;5.63;;;1.90;;
16063;SDS011;8136;53.172;8.256;2023-09-18T11:51:59;2.57;;;1.83;;
16063;SDS011;8136;53.172;8.256;2023-09-18T11:54:27;5.53;;;1.90;;
16063;SDS011;8136;53.172;8.256;2023-09-18T11:56:54;3.77;;;1.70;;
16063;SDS011;8136;53.172;8.256;2023-09-18T11:59:32;3.70;;;1.63;;
16063;SDS011;8136;53.172;8.256;2023-09-18T12:02:01;5.63;;;1.80;;
16063;SDS011;8136;53.172;8.256;2023-09-18T12:04:31;1.80;;;1.30;;
16063;SDS011;8136;53.172;8.256;2023-09-18T12:06:59;3.10;;;1.33;;
16063;SDS011;8136;53.172;8.256;2023-09-18T12:09:28;4.37;;;1.50;;
16063;SDS011;8136;53.172;8.256;2023-09-18T12:11:55;4.87;;;1.60;;
16063;SDS011;8136;53.172;8.256;2023-09-18T12:14:23;3.53;;;1.47;;
16063;SDS011;8136;53.172;8.256;2023-09-18T12:16:50;3.87;;;1.30;;
16063;SDS011;8136;53.172;8.256;2023-09-18T12:19:16;2.30;;;1.50;;
16063;SDS011;8136;53.172;8.256;2023-09-18T12:21:45;3.33;;;1.20;;
16063;SDS011;8136;53.172;8.256;2023-09-18T12:24:15;1.70;;;1.23;;
16063;SDS011;8136;53.172;8.256;2023-09-18T12:26:47;1.87;;;1.30;;
16063;SDS011;8136;53.172;8.256;2023-09-18T12:29:14;1.90;;;1.60;;
16063;SDS011;8136;53.172;8.256;2023-09-18T12:31:41;4.67;;;1.37;;
16063;SDS011;8136;53.172;8.256;2023-09-18T12:34:13;2.97;;;1.30;;
16063;SDS011;8136;53.172;8.256;2023-09-18T12:36:41;2.33;;;1.53;;
16063;SDS011;8136;53.172;8.256;2023-09-18T12:39:09;2.17;;;1.43;;
16063;SDS011;8136;53.172;8.256;2023-09-18T12:41:38;4.00;;;1.53;;
16063;SDS011;8136;53.172;8.256;2023-09-18T12:44:05;2.00;;;1.20;;
16063;SDS011;8136;53.172;8.256;2023-09-18T12:46:32;1.83;;;1.33;;
16063;SDS011;8136;53.172;8.256;2023-09-18T12:49:14;2.33;;;1.40;;
16063;SDS011;8136;53.172;8.256;2023-09-18T12:51:53;2.17;;;1.30;;
16063;SDS011;8136;53.172;8.256;2023-09-18T12:54:21;2.13;;;1.40;;
16063;SDS011;8136;53.172;8.256;2023-09-18T12:56:49;2.23;;;1.27;;
16063;SDS011;8136;53.172;8.256;2023-09-18T12:59:16;1.20;;;0.97;;
16063;SDS011;8136;53.172;8.256;2023-09-18T13:01:45;2.53;;;1.60;;
16063;SDS011;8136;53.172;8.256;2023-09-18T13:04:13;2.30;;;1.27;;
16063;SDS011;8136;53.172;8.256;2023-09-18T13:06:40;2.03;;;1.33;;
16063;SDS011;8136;53.172;8.256;2023-09-18T13:09:16;1.30;;;1.20;;
16063;SDS011;8136;53.172;8.256;2023-09-18T13:11:55;3.17;;;1.37;;
16063;SDS011;8136;53.172;8.256;2023-09-18T13:14:23;1.90;;;1.30;;
16063;SDS011;8136;53.172;8.256;2023-09-18T13:16:50;2.63;;;1.40;;
16063;SDS011;8136;53.172;8.256;2023-09-18T13:19:17;4.33;;;1.13;;
16063;SDS011;8136;53.172;8.256;2023-09-18T13:21:47;2.40;;;1.30;;
16063;SDS011;8136;53.172;8.256;2023-09-18T13:24:24;1.97;;;1.63;;
16063;SDS011;8136;53.172;8.256;2023-09-18T13:26:52;2.73;;;1.17;;
16063;SDS011;8136;53.172;8.256;2023-09-18T13:29:21;1.87;;;1.20;;
16063;SDS011;8136;53.172;8.256;2023-09-18T13:31:48;4.30;;;1.37;;
16063;SDS011;8136;53.172;8.256;2023-09-18T13:34:15;2.80;;;1.10;;
16063;SDS011;8136;53.172;8.256;2023-09-18T13:36:43;1.17;;;1.00;;
16063;SDS011;8136;53.172;8.256;2023-09-18T13:39:10;1.67;;;1.00;;
16063;SDS011;8136;53.172;8.256;2023-09-18T13:41:37;1.17;;;1.00;;
16063;SDS011;8136;53.172;8.256;2023-09-18T13:44:04;1.00;;;0.90;;
16063;SDS011;8136;53.172;8.256;2023-09-18T13:46:32;1.97;;;1.17;;
16063;SDS011;8136;53.172;8.256;2023-09-18T13:49:01;3.80;;;1.10;;
16063;SDS011;8136;53.172;8.256;2023-09-18T13:51:28;2.27;;;0.83;;
16063;SDS011;8136;53.172;8.256;2023-09-18T13:53:56;1.90;;;1.20;;
16063;SDS011;8136;53.172;8.256;2023-09-18T13:56:22;1.50;;;1.00;;
16063;SDS011;8136;53.172;8.256;2023-09-18T13:58:52;3.23;;;1.00;;
16063;SDS011;8136;53.172;8.256;2023-09-18T14:01:20;1.77;;;1.07;;
16063;SDS011;8136;53.172;8.256;2023-09-18T14:03:49;0.67;;;0.60;;
16063;SDS011;8136;53.172;8.256;2023-09-18T14:06:15;3.40;;;1.10;;
16063;SDS011;8136;53.172;8.256;2023-09-18T14:08:42;1.70;;;0.90;;
16063;SDS011;8136;53.172;8.256;2023-09-18T14:11:09;6.20;;;1.40;;
16063;SDS011;8136;53.172;8.256;2023-09-18T14:13:36;1.03;;;0.90;;
16063;SDS011;8136;53.172;8.256;2023-09-18T14:16:06;1.00;;;0.90;;
16063;SDS011;8136;53.172;8.256;2023-09-18T14:18:32;2.67;;;1.00;;
16063;SDS011;8136;53.172;8.256;2023-09-18T14:21:00;4.73;;;1.03;;
16063;SDS011;8136;53.172;8.256;2023-09-18T14:23:27;1.30;;;0.93;;
16063;SDS011;8136;53.172;8.256;2023-09-18T14:25:54;1.70;;;1.20;;
16063;SDS011;8136;53.172;8.256;2023-09-18T14:28:21;1.07;;;0.97;;
16063;SDS011;8136;53.172;8.256;2023-09-18T14:30:49;1.63;;;1.13;;
16063;SDS011;8136;53.172;8.256;2023-09-18T14:33:16;2.03;;;1.30;;
16063;SDS011;8136;53.172;8.256;2023-09-18T14:35:43;2.57;;;1.10;;
16063;SDS011;8136;53.172;8.256;2023-09-18T14:38:11;3.53;;;1.60;;
16063;SDS011;8136;53.172;8.256;2023-09-18T14:40:40;5.37;;;2.20;;
16063;SDS011;8136;53.172;8.256;2023-09-18T14:43:07;3.37;;;0.90;;
16063;SDS011;8136;53.172;8.256;2023-09-18T14:45:34;4.93;;;2.00;;
16063;SDS011;8136;53.172;8.256;2023-09-18T14:48:00;3.00;;;1.63;;
16063;SDS011;8136;53.172;8.256;2023-09-18T14:50:27;4.13;;;0.97;;
16063;SDS011;8136;53.172;8.256;2023-09-18T14:52:54;1.43;;;1.20;;
16063;SDS011;8136;53.172;8.256;2023-09-18T14:55:22;2.80;;;1.40;;
16063;SDS011;8136;53.172;8.256;2023-09-18T14:57:49;3.67;;;1.50;;
16063;SDS011;8136;53.172;8.256;2023-09-18T15:00:16;1.87;;;1.30;;
16063;SDS011;8136;53.172;8.256;2023-09-18T15:02:43;3.57;;;1.10;;
16063;SDS011;8136;53.172;8.256;2023-09-18T15:05:10;2.53;;;1.43;;
16063;SDS011;8136;53.172;8.256;2023-09-18T15:07:40;2.53;;;1.20;;
16063;SDS011;8136;53.172;8.256;2023-09-18T15:10:06;3.93;;;1.70;;
16063;SDS011;8136;53.172;8.256;2023-09-18T15:12:36;2.03;;;1.20;;
16063;SDS011;8136;53.172;8.256;2023-09-18T15:15:06;3.27;;;1.40;;
16063;SDS011;8136;53.172;8.256;2023-09-18T15:17:33;4.43;;;1.20;;
16063;SDS011;8136;53.172;8.256;2023-09-18T15:19:59;1.87;;;1.27;;
16063;SDS011;8136;53.172;8.256;2023-09-18T15:22:26;3.17;;;1.50;;
16063;SDS011;8136;53.172;8.256;2023-09-18T15:24:53;2.67;;;1.40;;
16063;SDS011;8136;53.172;8.256;2023-09-18T15:27:20;5.03;;;1.50;;
16063;SDS011;8136;53.172;8.256;2023-09-18T15:29:48;2.37;;;1.40;;
16063;SDS011;8136;53.172;8.256;2023-09-18T15:32:15;3.57;;;1.60;;
16063;SDS011;8136;53.172;8.256;2023-09-18T15:34:42;1.37;;;1.20;;
16063;SDS011;8136;53.172;8.256;2023-09-18T15:37:08;1.50;;;1.40;;
16063;SDS011;8136;53.172;8.256;2023-09-18T15:39:35;2.43;;;1.70;;
16063;SDS011;8136;53.172;8.256;2023-09-18T15:42:02;2.50;;;1.33;;
16063;SDS011;8136;53.172;8.256;2023-09-18T15:44:29;4.50;;;1.70;;
16063;SDS011;8136;53.172;8.256;2023-09-18T15:46:57;2.60;;;1.57;;
16063;SDS011;8136;53.172;8.256;2023-09-18T15:49:24;1.80;;;1.20;;
16063;SDS011;8136;53.172;8.256;2023-09-18T15:51:52;2.87;;;1.80;;
16063;SDS011;8136;53.172;8.256;2023-09-18T15:54:18;2.80;;;1.27;;
16063;SDS011;8136;53.172;8.256;2023-09-18T15:57:06;2.33;;;1.20;;
16063;SDS011;8136;53.172;8.256;2023-09-18T15:59:33;3.93;;;1.00;;
16063;SDS011;8136;53.172;8.256;2023-09-18T16:02:01;3.33;;;1.50;;
16063;SDS011;8136;53.172;8.256;2023-09-18T16:04:28;3.07;;;1.30;;
16063;SDS011;8136;53.172;8.256;2023-09-18T16:06:55;2.90;;;1.53;;
16063;SDS011;8136;53.172;8.256;2023-09-18T16:09:22;4.47;;;1.27;;
16063;SDS011;8136;53.172;8.256;2023-09-18T16:11:50;1.43;;;1.00;;
16063;SDS011;8136;53.172;8.256;2023-09-18T16:14:17;2.47;;;1.20;;
16063;SDS011;8136;53.172;8.256;2023-09-18T16:16:45;2.90;;;1.20;;
16063;SDS011;8136;53.172;8.256;2023-09-18T16:19:13;1.30;;;1.00;;
16063;SDS011;8136;53.172;8.256;2023-09-18T16:21:40;5.30;;;1.40;;
16063;SDS011;8136;53.172;8.256;2023-09-18T16:24:08;3.27;;;1.50;;
16063;SDS011;8136;53.172;8.256;2023-09-18T16:26:35;2.30;;;1.27;;
16063;SDS011;8136;53.172;8.256;2023-09-18T16:29:02;2.07;;;1.60;;
16063;SDS011;8136;53.172;8.256;2023-09-18T16:31:29;2.53;;;1.30;;
16063;SDS011;8136;53.172;8.256;2023-09-18T16:33:57;2.10;;;1.57;;